Avon, IL (61415)

11:55 PM CST on February 06, 2016 (GMT -0600)
Little Swan Lake. | | Change Station
CLOSE
Current Station
Personal Weather Station
Location: Roseville, IL
Elevation: 663 ft
Nearby Weather Stations
Active Advisory: Flood Warning

Elev 663 ft 40.67 °N, 90.53 °W | Updated 3 minutes ago

Partly Cloudy
Partly Cloudy
31.6 °F
Feels Like 26 °F
N
5.8
Wind Variable Wind from ENE

Today
High -- | Low -- °F
--% Chance of Precip.
Yesterday
High -- | Low -- °F
Precip. -- in
Pressure 30.09 in
Visibility 10.0 miles
Clouds Clear
Windchill 26 °F
Dew Point 28 °F
Humidity 88%
Rainfall 0.10 in
Snow Depth Not available.
7:06 AM 5:25 PM
Waning Crescent, 2% visible
METAR KMQB 070535Z AUTO 21008KT 10SM CLR 03/M01 A3009 RMK AO2 T00251011
Pressure 30.09 in
Visibility 10.0 miles
Clouds Clear
Windchill 26 °F
Dew Point 28 °F
Humidity 88%
Rainfall 0.10 in
Snow Depth Not available.
7:06 AM 5:25 PM
Waning Crescent, 2% visible
METAR KMQB 070535Z AUTO 21008KT 10SM CLR 03/M01 A3009 RMK AO2 T00251011

10-Day Weather Forecast

Almanac

Astronomy

Feb. 06, 2016 Rise Set
Actual Time
Civil Twilight
Nautical Twilight
Astronomical Twilight
Moon
Length of Visible Light
Length of Day
Tomorrow will be .
, % of the Moon is Illuminated

Today's Extremes

State Highs State Lows

Community

WunderPhotos

Upload Photos

1,891,167 photos uploaded!

WunderBlog® & News

Nearby

Air Quality

  Air Quality AQ Index Pollutant
Not available.

Snow Depth

Station Depth Elevation

Earthquake Activity

City Distance Mag. Time & Date
Minimum magnitude displayed is 2.5.

Coastal Water Temperatures

Place Temperature

Stations

Nearby Weather Stations

Station Location Temp. Windchill Dew Point Humidity Wind Precip. Elev Updated Type
                   

Watches & Warnings

Flood Warning
Issued: 7:40 PM CST Feb. 6, 2016 – National Weather Service

The Flood Warning continues for
the Illinois River at Havana.
* Until Wednesday morning.
* At 645 PM Saturday the stage was 13.4 feet.
* Flood stage is 14.0 feet.
* Forecast... the river is expected to rise to near flood stage
Tuesday afternoon.
* Impact... at 14.0 feet... minor flooding begins to agricultural areas
not protected by levees.



                  Fld observed forecast 6am
location stg stg day time sun Mon Tue

Illinois River
Havana 14 13.4 Sat 7 PM 13.5 13.7 13.9



Lat... Lon 4053 8988 4047 8980 4034 9002 4012 9017
      4018 9023 4039 9010